createdAt,value
2023-04-11T00:00:42.494Z,1.45
2023-04-11T00:03:11.935Z,1.52
2023-04-11T00:05:39.937Z,1.23
2023-04-11T00:08:08.068Z,1.30
2023-04-11T00:10:36.076Z,1.40
2023-04-11T00:13:04.452Z,1.40
2023-04-11T00:15:32.580Z,1.60
2023-04-11T00:18:00.599Z,1.65
2023-04-11T00:20:30.005Z,1.50
2023-04-11T00:22:58.395Z,1.35
2023-04-11T00:25:27.065Z,1.50
2023-04-11T00:27:55.410Z,1.35
2023-04-11T00:30:23.692Z,1.50
2023-04-11T00:32:51.680Z,1.20
2023-04-11T00:35:19.659Z,1.35
2023-04-11T00:37:54.151Z,1.40
2023-04-11T00:40:22.157Z,1.50
2023-04-11T00:42:50.111Z,1.55
2023-04-11T00:45:18.120Z,1.40
2023-04-11T00:47:46.332Z,1.60
2023-04-11T00:50:15.849Z,1.52
2023-04-11T00:52:49.434Z,1.58
2023-04-11T00:55:17.713Z,1.40
2023-04-11T00:57:46.359Z,1.27
2023-04-11T01:00:15.366Z,1.40
2023-04-11T01:02:45.185Z,1.40
2023-04-11T01:05:14.828Z,1.25
2023-04-11T01:07:46.501Z,1.20
2023-04-11T01:10:16.913Z,1.42
2023-04-11T01:12:46.750Z,1.40
2023-04-11T01:15:14.732Z,1.23
2023-04-11T01:17:42.797Z,1.65
2023-04-11T01:20:11.818Z,1.50
2023-04-11T01:22:41.572Z,1.20
2023-04-11T01:25:12.015Z,1.25
2023-04-11T01:27:40.029Z,1.30
2023-04-11T01:30:09.399Z,1.50
2023-04-11T01:32:37.412Z,1.40
2023-04-11T01:35:06.229Z,1.30
2023-04-11T01:37:34.357Z,1.42
2023-04-11T01:40:02.803Z,1.25
2023-04-11T01:42:33.666Z,1.30
2023-04-11T01:45:02.602Z,1.35
2023-04-11T01:47:30.608Z,1.40
2023-04-11T01:49:58.579Z,1.48
2023-04-11T01:52:26.606Z,1.70
2023-04-11T01:54:54.597Z,1.63
2023-04-11T01:57:22.534Z,1.48
2023-04-11T01:59:51.928Z,1.70
2023-04-11T02:02:19.960Z,1.48
2023-04-11T02:04:47.979Z,1.75
2023-04-11T02:07:15.980Z,1.70
2023-04-11T02:09:43.934Z,1.92
2023-04-11T02:12:12.068Z,1.92
2023-04-11T02:14:44.384Z,1.60
2023-04-11T02:17:14.259Z,1.55
2023-04-11T02:19:45.271Z,1.73
2023-04-11T02:22:13.651Z,1.67
2023-04-11T02:24:42.223Z,1.92
2023-04-11T02:27:12.696Z,1.52
2023-04-11T02:29:40.776Z,1.83
2023-04-11T02:32:08.922Z,1.98
2023-04-11T02:34:38.393Z,1.80
2023-04-11T02:37:06.359Z,2.30
2023-04-11T02:39:34.284Z,2.15
2023-04-11T02:42:02.210Z,1.85
2023-04-11T02:44:30.888Z,2.20
2023-04-11T02:47:00.121Z,1.98
2023-04-11T02:49:28.203Z,2.10
2023-04-11T02:51:57.578Z,2.28
2023-04-11T02:54:25.593Z,2.20
2023-04-11T02:56:55.840Z,2.33
2023-04-11T02:59:23.835Z,2.13
2023-04-11T03:01:51.888Z,2.40
2023-04-11T03:04:19.941Z,2.75
2023-04-11T03:06:47.919Z,2.22
2023-04-11T03:09:17.230Z,2.40
2023-04-11T03:11:47.292Z,2.42
2023-04-11T03:14:15.469Z,2.30
2023-04-11T03:16:43.364Z,1.98
2023-04-11T03:19:11.313Z,2.00
2023-04-11T03:21:39.246Z,2.28
2023-04-11T03:24:07.934Z,1.77
2023-04-11T03:26:37.228Z,1.90
2023-04-11T03:29:05.182Z,1.80
2023-04-11T03:31:33.212Z,1.70
2023-04-11T03:34:01.300Z,1.52
2023-04-11T03:36:29.594Z,1.30
2023-04-11T03:38:57.875Z,1.30
2023-04-11T03:41:26.110Z,0.90
2023-04-11T03:43:55.867Z,1.25
2023-04-11T03:46:23.967Z,1.30
2023-04-11T03:48:51.873Z,1.10
2023-04-11T03:51:19.787Z,1.38
2023-04-11T03:53:47.652Z,1.42
2023-04-11T03:56:15.817Z,1.27
2023-04-11T03:58:43.727Z,1.10
2023-04-11T04:01:13.210Z,1.10
2023-04-11T04:03:41.409Z,1.40
2023-04-11T04:06:10.252Z,1.45
2023-04-11T04:08:38.173Z,1.13
2023-04-11T04:11:06.638Z,1.20
2023-04-11T04:13:34.732Z,1.02
2023-04-11T04:16:03.882Z,1.10
2023-04-11T04:18:33.382Z,1.00
2023-04-11T04:21:01.334Z,1.02
2023-04-11T04:23:30.001Z,1.02
2023-04-11T04:26:02.008Z,1.00
2023-04-11T04:28:30.002Z,1.00
2023-04-11T04:30:58.604Z,1.17
2023-04-11T04:33:27.696Z,1.00
2023-04-11T04:35:59.949Z,1.00
2023-04-11T04:38:28.988Z,1.00
2023-04-11T04:40:56.972Z,1.17
2023-04-11T04:43:27.193Z,1.13
2023-04-11T04:45:55.292Z,0.98
2023-04-11T04:48:25.485Z,1.20
2023-04-11T04:50:53.496Z,0.95
2023-04-11T04:53:22.767Z,1.00
2023-04-11T04:55:50.894Z,1.00
2023-04-11T04:58:18.846Z,0.93
2023-04-11T05:00:49.246Z,0.90
2023-04-11T05:03:20.861Z,1.00
2023-04-11T05:05:49.137Z,1.20
2023-04-11T05:08:19.326Z,1.00
2023-04-11T05:10:48.588Z,1.15
2023-04-11T05:13:16.601Z,1.15
2023-04-11T05:15:49.030Z,1.10
2023-04-11T05:18:16.999Z,1.00
2023-04-11T05:20:45.674Z,1.10
2023-04-11T05:23:13.700Z,1.08
2023-04-11T05:25:41.643Z,1.50
2023-04-11T05:28:10.933Z,1.02
2023-04-11T05:30:38.935Z,1.25
2023-04-11T05:33:06.945Z,1.00
2023-04-11T05:35:34.933Z,1.13
2023-04-11T05:38:02.936Z,2.00
2023-04-11T05:40:30.918Z,1.40
2023-04-11T05:42:58.875Z,2.22
2023-04-11T05:45:28.169Z,1.80
2023-04-11T05:47:56.730Z,1.50
2023-04-11T05:50:25.168Z,1.92
2023-04-11T05:52:53.081Z,1.10
2023-04-11T05:55:21.070Z,1.10
2023-04-11T05:57:49.045Z,0.88
2023-04-11T06:00:18.256Z,0.70
2023-04-11T06:02:49.249Z,1.00
2023-04-11T06:05:17.935Z,1.00
2023-04-11T06:07:46.776Z,0.70
2023-04-11T06:10:14.903Z,0.95
2023-04-11T06:12:44.167Z,0.73
2023-04-11T06:15:13.825Z,0.85
2023-04-11T06:17:42.071Z,0.60
2023-04-11T06:20:12.175Z,0.70
2023-04-11T06:22:40.918Z,0.70
2023-04-11T06:25:10.094Z,0.50
2023-04-11T06:27:38.002Z,0.73
2023-04-11T06:30:07.134Z,0.60
2023-04-11T06:32:35.520Z,0.63
2023-04-11T06:35:03.567Z,0.90
2023-04-11T06:37:32.908Z,0.52
2023-04-11T06:40:01.396Z,0.75
2023-04-11T06:42:29.382Z,0.80
2023-04-11T06:44:57.420Z,1.08
2023-04-11T06:47:25.545Z,1.00
2023-04-11T06:49:53.685Z,0.90
2023-04-11T06:52:21.701Z,0.80
2023-04-11T06:54:51.020Z,0.75
2023-04-11T06:57:18.960Z,0.70
2023-04-11T06:59:47.004Z,0.80
2023-04-11T07:02:15.622Z,0.70
2023-04-11T07:04:43.872Z,0.80
2023-04-11T07:07:11.975Z,0.50
2023-04-11T07:09:40.053Z,0.70
2023-04-11T07:12:09.456Z,0.60
2023-04-11T07:14:37.421Z,0.98
2023-04-11T07:17:05.456Z,0.70
2023-04-11T07:19:33.528Z,0.70
2023-04-11T07:22:01.518Z,0.80
2023-04-11T07:24:30.588Z,0.80
2023-04-11T07:27:01.760Z,1.00
2023-04-11T07:29:31.766Z,0.65
2023-04-11T07:31:59.776Z,0.60
2023-04-11T07:34:27.790Z,0.65
2023-04-11T07:37:01.104Z,0.80
2023-04-11T07:39:29.410Z,0.80
2023-04-11T07:41:57.919Z,1.02
2023-04-11T07:44:27.221Z,0.77
2023-04-11T07:46:56.847Z,1.15
2023-04-11T07:49:24.894Z,0.73
2023-04-11T07:51:52.873Z,0.80
2023-04-11T07:54:20.816Z,1.08
2023-04-11T07:56:48.818Z,0.98
2023-04-11T07:59:17.256Z,1.05
2023-04-11T08:01:45.289Z,0.95
2023-04-11T08:04:15.210Z,1.17
2023-04-11T08:06:43.489Z,0.88
2023-04-11T08:09:11.498Z,0.90
2023-04-11T08:11:40.844Z,0.80
2023-04-11T08:14:09.187Z,1.23
2023-04-11T08:16:37.286Z,1.00
2023-04-11T08:19:05.283Z,0.93
2023-04-11T08:21:34.619Z,1.10
2023-04-11T08:24:02.587Z,1.30
2023-04-11T08:26:30.918Z,1.30
2023-04-11T08:28:58.885Z,1.10
2023-04-11T08:31:28.464Z,1.33
2023-04-11T08:33:58.483Z,1.17
2023-04-11T08:36:28.494Z,1.00
2023-04-11T08:39:00.158Z,1.15
2023-04-11T08:41:30.698Z,1.17
2023-04-11T08:43:59.006Z,1.25
2023-04-11T08:46:27.256Z,1.30
2023-04-11T08:48:55.821Z,1.67
2023-04-11T08:51:26.753Z,1.23
2023-04-11T08:53:57.859Z,1.48
2023-04-11T08:56:28.045Z,1.60
2023-04-11T08:58:56.281Z,1.30
2023-04-11T09:01:29.814Z,1.30
2023-04-11T09:03:58.180Z,1.20
2023-04-11T09:06:30.601Z,1.33
2023-04-11T09:08:59.373Z,1.48
2023-04-11T09:11:29.011Z,1.08
2023-04-11T09:14:10.121Z,1.20
2023-04-11T09:16:38.623Z,1.25
2023-04-11T09:19:24.921Z,1.92
2023-04-11T09:21:53.647Z,1.60
2023-04-11T09:24:22.732Z,1.55
2023-04-11T09:26:52.460Z,1.40
2023-04-11T09:29:37.996Z,1.45
2023-04-11T09:32:06.289Z,1.33
2023-04-11T09:34:37.489Z,1.63
2023-04-11T09:37:06.386Z,1.65
2023-04-11T09:39:34.412Z,1.45
2023-04-11T09:42:23.787Z,1.95
2023-04-11T09:44:52.053Z,1.60
2023-04-11T09:47:20.076Z,1.50
2023-04-11T09:49:48.432Z,1.52
2023-04-11T09:52:17.239Z,1.88
2023-04-11T09:54:46.346Z,1.55
2023-04-11T09:57:16.148Z,1.58
2023-04-11T09:59:45.388Z,1.60
2023-04-11T10:02:13.669Z,2.38
2023-04-11T10:04:41.795Z,1.42
2023-04-11T10:07:14.354Z,1.88
2023-04-11T10:09:43.979Z,1.80
2023-04-11T10:12:12.251Z,1.60
2023-04-11T10:14:47.730Z,1.80
2023-04-11T10:17:20.700Z,2.05
2023-04-11T10:19:51.584Z,1.30
2023-04-11T10:22:57.009Z,1.27
2023-04-11T10:25:25.334Z,1.38
2023-04-11T10:27:54.703Z,1.33
2023-04-11T10:30:55.861Z,1.60
2023-04-11T10:33:26.858Z,1.55
2023-04-11T10:35:58.822Z,1.60
2023-04-11T10:38:49.747Z,1.40
2023-04-11T10:41:35.591Z,1.65
2023-04-11T10:44:18.347Z,1.35
2023-04-11T10:46:48.830Z,1.38
2023-04-11T10:49:38.635Z,1.60
2023-04-11T10:52:20.988Z,1.40
2023-04-11T10:54:49.102Z,1.10
2023-04-11T10:57:17.550Z,1.25
2023-04-11T11:00:01.927Z,1.20
2023-04-11T11:02:40.252Z,1.35
2023-04-11T11:05:23.618Z,1.48
2023-04-11T11:07:55.768Z,1.33
2023-04-11T11:10:40.784Z,1.30
2023-04-11T11:13:09.353Z,1.80
2023-04-11T11:15:38.504Z,1.38
2023-04-11T11:18:08.173Z,1.98
2023-04-11T11:20:38.491Z,1.40
2023-04-11T11:23:08.312Z,3.30
2023-04-11T11:25:36.457Z,1.70
2023-04-11T11:28:06.294Z,2.33
2023-04-11T11:30:35.131Z,3.35
2023-04-11T11:33:17.894Z,4.60
2023-04-11T11:35:53.490Z,3.40
2023-04-11T11:38:22.356Z,2.22
2023-04-11T11:40:50.751Z,3.05
2023-04-11T11:43:19.186Z,5.20
2023-04-11T11:45:48.062Z,3.03
2023-04-11T11:48:23.404Z,3.83
2023-04-11T11:50:58.065Z,2.67
2023-04-11T11:53:26.783Z,1.75
2023-04-11T11:55:56.773Z,2.20
2023-04-11T11:58:24.956Z,1.10
2023-04-11T12:00:53.534Z,4.47
2023-04-11T12:03:23.530Z,3.40
2023-04-11T12:05:52.954Z,5.68
2023-04-11T12:08:23.140Z,3.80
2023-04-11T12:10:52.221Z,2.78
2023-04-11T12:13:22.566Z,1.40
2023-04-11T12:15:52.642Z,1.27
2023-04-11T12:18:24.759Z,1.50
2023-04-11T12:20:53.502Z,1.20
2023-04-11T12:23:23.952Z,1.63
2023-04-11T12:25:51.992Z,1.30
2023-04-11T12:28:20.096Z,1.67
2023-04-11T12:30:47.998Z,1.52
2023-04-11T12:33:16.312Z,1.50
2023-04-11T12:35:44.276Z,1.70
2023-04-11T12:38:14.958Z,1.30
2023-04-11T12:40:47.301Z,1.63
2023-04-11T12:43:15.516Z,1.30
2023-04-11T12:45:43.464Z,1.30
2023-04-11T12:48:11.390Z,1.30
2023-04-11T12:50:39.365Z,1.77
2023-04-11T12:53:07.334Z,1.75
2023-04-11T12:55:35.451Z,1.77
2023-04-11T12:58:04.932Z,1.73
2023-04-11T13:00:32.951Z,1.67
2023-04-11T13:03:01.101Z,1.50
2023-04-11T13:05:29.401Z,1.90
2023-04-11T13:07:57.402Z,1.85
2023-04-11T13:10:26.488Z,1.60
2023-04-11T13:12:58.461Z,2.50
2023-04-11T13:15:28.332Z,1.48
2023-04-11T13:17:56.366Z,1.70
2023-04-11T13:20:24.284Z,1.60
2023-04-11T13:22:52.192Z,1.42
2023-04-11T13:25:20.370Z,1.30
2023-04-11T13:27:48.354Z,1.50
2023-04-11T13:30:16.492Z,1.70
2023-04-11T13:32:45.846Z,1.08
2023-04-11T13:35:13.801Z,1.90
2023-04-11T13:37:42.060Z,1.27
2023-04-11T13:40:12.362Z,1.30
2023-04-11T13:42:40.384Z,1.40
2023-04-11T13:45:10.091Z,1.40
2023-04-11T13:47:38.949Z,1.40
2023-04-11T13:50:09.983Z,1.63
2023-04-11T13:52:37.970Z,1.30
2023-04-11T13:55:06.783Z,1.23
2023-04-11T13:57:34.790Z,1.60
2023-04-11T14:00:06.679Z,1.80
2023-04-11T14:02:34.813Z,1.20
2023-04-11T14:05:02.901Z,1.50
2023-04-11T14:07:32.246Z,1.20
2023-04-11T14:10:00.276Z,1.58
2023-04-11T14:12:28.358Z,1.63
2023-04-11T14:14:56.264Z,1.58
2023-04-11T14:17:24.304Z,1.60
2023-04-11T14:19:52.456Z,1.73
2023-04-11T14:22:20.600Z,1.50
2023-04-11T14:24:49.979Z,1.50
2023-04-11T14:27:18.039Z,1.20
2023-04-11T14:29:47.294Z,2.33
2023-04-11T14:32:15.260Z,1.50
2023-04-11T14:34:43.228Z,1.65
2023-04-11T14:37:11.247Z,1.48
2023-04-11T14:39:40.015Z,1.40
2023-04-11T14:42:09.854Z,1.40
2023-04-11T14:44:39.233Z,24.70
2023-04-11T14:47:07.282Z,1.52
2023-04-11T14:49:35.257Z,1.17
2023-04-11T14:52:03.248Z,1.30
2023-04-11T14:54:31.341Z,1.60
2023-04-11T14:56:59.614Z,1.52
2023-04-11T14:59:28.923Z,1.27
2023-04-11T15:01:57.229Z,1.40
2023-04-11T15:04:25.304Z,1.70
2023-04-11T15:06:53.274Z,1.50
2023-04-11T15:09:21.341Z,1.60
2023-04-11T15:11:49.748Z,1.67
2023-04-11T15:14:20.031Z,1.60
2023-04-11T15:16:49.402Z,1.60
2023-04-11T15:19:17.334Z,1.70
2023-04-11T15:21:46.421Z,2.13
2023-04-11T15:24:14.404Z,1.60
2023-04-11T15:26:44.527Z,1.60
2023-04-11T15:29:16.622Z,1.90
2023-04-11T15:31:44.617Z,2.22
2023-04-11T15:34:16.792Z,1.70
2023-04-11T15:36:45.346Z,1.70
2023-04-11T15:39:13.293Z,1.92
2023-04-11T15:41:41.404Z,1.45
2023-04-11T15:44:09.615Z,1.95
2023-04-11T15:46:37.597Z,1.80
2023-04-11T15:49:05.508Z,1.70
2023-04-11T15:51:34.847Z,1.50
2023-04-11T15:54:04.831Z,1.48
2023-04-11T15:56:33.549Z,1.20
2023-04-11T15:59:01.490Z,1.70
2023-04-11T16:01:29.981Z,1.65
2023-04-11T16:03:58.280Z,2.00
2023-04-11T16:06:27.282Z,1.63
2023-04-11T16:08:56.742Z,1.30
2023-04-11T16:11:24.681Z,1.60
2023-04-11T16:13:52.692Z,1.52
2023-04-11T16:16:20.789Z,1.88
2023-04-11T16:18:48.770Z,1.75
2023-04-11T16:21:17.061Z,1.60
2023-04-11T16:23:45.029Z,3.40
2023-04-11T16:26:14.315Z,2.88
2023-04-11T16:28:42.231Z,2.70
2023-04-11T16:31:10.186Z,3.95
2023-04-11T16:33:38.129Z,3.00
2023-04-11T16:36:06.530Z,1.73
2023-04-11T16:38:34.486Z,1.88
2023-04-11T16:41:03.413Z,1.98
2023-04-11T16:43:32.680Z,2.65
2023-04-11T16:46:00.705Z,2.55
2023-04-11T16:48:30.339Z,2.70
2023-04-11T16:50:58.793Z,2.50
2023-04-11T16:53:26.770Z,2.80
2023-04-11T16:55:55.665Z,2.60
2023-04-11T16:58:23.854Z,3.20
2023-04-11T17:00:53.732Z,2.08
2023-04-11T17:03:21.857Z,1.27
2023-04-11T17:05:50.030Z,1.50
2023-04-11T17:08:18.865Z,1.60
2023-04-11T17:10:46.767Z,1.70
2023-04-11T17:13:16.059Z,1.80
2023-04-11T17:15:44.052Z,1.42
2023-04-11T17:18:14.790Z,1.52
2023-04-11T17:20:43.750Z,1.58
2023-04-11T17:23:12.282Z,1.85
2023-04-11T17:25:40.268Z,1.65
2023-04-11T17:28:08.773Z,1.38
2023-04-11T17:30:36.770Z,1.23
2023-04-11T17:33:04.843Z,1.42
2023-04-11T17:35:34.500Z,1.70
2023-04-11T17:38:02.782Z,1.83
2023-04-11T17:40:30.734Z,1.40
2023-04-11T17:42:58.847Z,1.60
2023-04-11T17:45:27.214Z,1.55
2023-04-11T17:47:55.510Z,1.83
2023-04-11T17:50:23.601Z,1.90
2023-04-11T17:52:52.997Z,2.10
2023-04-11T17:55:21.579Z,1.67
2023-04-11T17:57:49.854Z,1.95
2023-04-11T18:00:22.155Z,1.70
2023-04-11T18:02:52.437Z,1.80
2023-04-11T18:05:24.990Z,1.80
2023-04-11T18:07:56.607Z,1.70
2023-04-11T18:10:25.783Z,1.92
2023-04-11T18:12:54.743Z,1.88
2023-04-11T18:15:23.585Z,1.80
2023-04-11T18:17:52.569Z,2.13
2023-04-11T18:20:20.608Z,6.28
2023-04-11T18:22:51.439Z,7.70
2023-04-11T18:25:21.272Z,4.30
2023-04-11T18:27:49.530Z,2.17
2023-04-11T18:30:18.226Z,2.17
2023-04-11T18:32:49.334Z,1.65
2023-04-11T18:35:18.410Z,3.13
2023-04-11T18:37:46.548Z,3.40
2023-04-11T18:40:15.887Z,3.15
2023-04-11T18:42:48.436Z,3.35
2023-04-11T18:45:17.920Z,2.35
2023-04-11T18:47:46.680Z,2.33
2023-04-11T18:50:15.073Z,2.20
2023-04-11T18:52:44.965Z,1.98
2023-04-11T18:55:13.831Z,1.48
2023-04-11T18:57:43.872Z,1.83
2023-04-11T19:00:18.658Z,1.45
2023-04-11T19:02:50.281Z,1.88
2023-04-11T19:05:19.292Z,1.80
2023-04-11T19:07:47.759Z,1.83
2023-04-11T19:10:15.855Z,1.80
2023-04-11T19:12:43.987Z,1.70
2023-04-11T19:15:14.523Z,1.70
2023-04-11T19:17:42.808Z,1.70
2023-04-11T19:20:13.708Z,1.70
2023-04-11T19:22:41.994Z,1.80
2023-04-11T19:25:11.652Z,2.10
2023-04-11T19:27:41.468Z,2.15
2023-04-11T19:30:13.409Z,2.15
2023-04-11T19:32:45.942Z,1.80
2023-04-11T19:35:14.537Z,2.00
2023-04-11T19:37:42.788Z,2.03
2023-04-11T19:40:13.826Z,1.88
2023-04-11T19:42:42.099Z,1.75
2023-04-11T19:45:11.115Z,1.73
2023-04-11T19:47:40.396Z,1.70
2023-04-11T19:50:13.068Z,18.55
2023-04-11T19:52:41.550Z,24.35
2023-04-11T19:55:10.434Z,48.67
2023-04-11T19:57:40.229Z,31.00
2023-04-11T20:00:12.549Z,8.95
2023-04-11T20:02:44.609Z,6.28
2023-04-11T20:05:15.323Z,9.40
2023-04-11T20:07:43.941Z,36.67
2023-04-11T20:10:12.540Z,57.92
2023-04-11T20:12:40.804Z,65.00
2023-04-11T20:15:10.208Z,33.50
2023-04-11T20:17:38.294Z,46.88
2023-04-11T20:20:08.846Z,24.77
2023-04-11T20:22:39.107Z,33.10
2023-04-11T20:25:11.367Z,46.67
2023-04-11T20:27:39.752Z,14.70
2023-04-11T20:30:10.509Z,5.85
2023-04-11T20:32:38.844Z,5.65
2023-04-11T20:35:08.922Z,10.00
2023-04-11T20:37:38.679Z,4.80
2023-04-11T20:40:10.030Z,20.10
2023-04-11T20:42:40.062Z,9.13
2023-04-11T20:45:10.729Z,4.78
2023-04-11T20:47:39.129Z,9.52
2023-04-11T20:50:08.915Z,3.92
2023-04-11T20:52:41.166Z,2.28
2023-04-11T20:55:10.714Z,1.70
2023-04-11T20:57:38.736Z,5.70
2023-04-11T21:00:13.849Z,9.68
2023-04-11T21:02:44.330Z,12.32
2023-04-11T21:05:13.399Z,12.63
2023-04-11T21:07:43.235Z,8.88
2023-04-11T21:10:12.230Z,4.00
2023-04-11T21:12:40.771Z,6.82
2023-04-11T21:15:10.077Z,4.93
2023-04-11T21:17:39.563Z,2.30
2023-04-11T21:20:10.187Z,3.60
2023-04-11T21:22:40.225Z,2.00
2023-04-11T21:25:10.594Z,1.80
2023-04-11T21:27:38.589Z,1.50
2023-04-11T21:30:07.651Z,2.00
2023-04-11T21:32:38.948Z,1.40
2023-04-11T21:35:08.993Z,2.33
2023-04-11T21:37:37.294Z,2.13
2023-04-11T21:40:06.147Z,2.53
2023-04-11T21:42:35.515Z,1.85
2023-04-11T21:45:03.561Z,1.80
2023-04-11T21:47:31.659Z,1.40
2023-04-11T21:49:59.681Z,1.67
2023-04-11T21:52:27.606Z,1.35
2023-04-11T21:54:55.812Z,1.77
2023-04-11T21:57:23.849Z,1.10
2023-04-11T21:59:53.123Z,1.30
2023-04-11T22:02:21.330Z,1.40
2023-04-11T22:05:04.539Z,1.38
2023-04-11T22:07:38.971Z,1.20
2023-04-11T22:10:10.353Z,1.40
2023-04-11T22:12:39.124Z,1.30
2023-04-11T22:15:12.476Z,1.35
2023-04-11T22:17:41.810Z,1.23
2023-04-11T22:20:11.262Z,1.10
2023-04-11T22:22:39.300Z,1.40
2023-04-11T22:25:09.847Z,1.42
2023-04-11T22:27:38.483Z,1.17
2023-04-11T22:30:09.769Z,1.10
2023-04-11T22:32:38.063Z,1.30
2023-04-11T22:35:08.257Z,1.83
2023-04-11T22:37:36.267Z,1.42
2023-04-11T22:40:06.123Z,2.40
2023-04-11T22:42:34.079Z,5.45
2023-04-11T22:45:02.078Z,2.63
2023-04-11T22:47:34.072Z,1.88
2023-04-11T22:50:03.516Z,1.90
2023-04-11T22:52:31.864Z,1.42
2023-04-11T22:54:59.788Z,2.10
2023-04-11T22:57:27.699Z,1.73
2023-04-11T22:59:55.696Z,1.48
2023-04-11T23:02:25.260Z,1.60
2023-04-11T23:04:54.773Z,1.60
2023-04-11T23:07:25.056Z,1.45
2023-04-11T23:09:53.640Z,1.40
2023-04-11T23:12:21.905Z,1.58
2023-04-11T23:14:50.387Z,1.73
2023-04-11T23:17:18.342Z,1.70
2023-04-11T23:19:47.152Z,2.00
2023-04-11T23:22:16.923Z,1.70
2023-04-11T23:24:45.331Z,1.67
2023-04-11T23:27:13.747Z,1.70
2023-04-11T23:29:41.722Z,1.85
2023-04-11T23:32:09.882Z,1.80
2023-04-11T23:34:37.829Z,1.80
2023-04-11T23:37:05.962Z,1.75
2023-04-11T23:39:35.314Z,2.08
2023-04-11T23:42:03.226Z,2.15
2023-04-11T23:44:31.238Z,1.45
2023-04-11T23:46:59.947Z,1.63
2023-04-11T23:49:28.092Z,1.50
2023-04-11T23:51:56.103Z,1.77
2023-04-11T23:54:25.854Z,1.80
2023-04-11T23:56:55.611Z,1.70
2023-04-11T23:59:23.845Z,1.83
